Time;durP1;ratioP1;P1;durP2;ratioP2;P2;SDS_P1;SDS_P2;PMS_P1;PMS_P2;Temp;Humidity;BMP_temperature;BMP_pressure;BME280_temperature;BME280_humidity;BME280_pressure;Samples;Min_cycle;Max_cycle;Signal;HPM_P1;HPM_P2
2021/09/11 00:01:57;;;;;;;3.03;1.80;;;;;;;10.85;77.04;95289.28;5120361;27;20050;-76
2021/09/11 00:04:24;;;;;;;2.47;1.98;;;;;;;10.86;77.07;95303.91;5112439;27;20050;-75
2021/09/11 00:06:51;;;;;;;3.42;2.08;;;;;;;10.90;77.68;95310.25;5115668;27;20047;-75
2021/09/11 00:09:18;;;;;;;4.50;2.08;;;;;;;10.87;78.19;95315.91;5111313;27;20050;-75
2021/09/11 00:11:45;;;;;;;3.33;2.05;;;;;;;10.82;78.74;95297.56;5118209;27;20085;-75
2021/09/11 00:14:11;;;;;;;2.88;1.58;;;;;;;10.86;79.43;95311.72;5122271;27;20043;-75
2021/09/11 00:16:38;;;;;;;3.03;1.50;;;;;;;10.86;79.53;95314.34;5119007;27;20039;-75
2021/09/11 00:19:05;;;;;;;2.97;1.98;;;;;;;10.94;79.93;95315.03;5113293;27;20051;-75
2021/09/11 00:21:32;;;;;;;3.35;1.90;;;;;;;10.89;79.68;95298.28;5121571;27;20043;-76
2021/09/11 00:24:00;;;;;;;2.75;1.77;;;;;;;10.88;78.83;95299.28;5112132;27;20467;-75
2021/09/11 00:26:26;;;;;;;3.70;1.70;;;;;;;10.85;78.68;95302.31;5117367;27;20035;-75
2021/09/11 00:28:53;;;;;;;2.67;1.63;;;;;;;10.80;79.38;95289.16;5117720;27;20051;-75
2021/09/11 00:31:20;;;;;;;2.60;1.85;;;;;;;10.74;79.36;95274.41;5119766;27;20099;-75
2021/09/11 00:33:47;;;;;;;7.72;1.60;;;;;;;10.79;79.02;95292.00;5114490;27;20046;-75
2021/09/11 00:36:13;;;;;;;3.83;1.95;;;;;;;10.77;79.46;95300.03;5112923;27;20085;-75
2021/09/11 00:38:40;;;;;;;6.38;2.42;;;;;;;10.69;78.87;95297.72;5117751;27;20063;-75
2021/09/11 00:41:07;;;;;;;3.75;1.70;;;;;;;10.64;78.43;95306.19;5121921;27;20096;-75
2021/09/11 00:43:35;;;;;;;5.10;2.75;;;;;;;10.59;78.56;95318.25;5094762;27;20058;-76
2021/09/11 00:46:01;;;;;;;4.70;2.05;;;;;;;10.51;79.03;95320.19;5111543;27;20044;-75
2021/09/11 00:48:28;;;;;;;3.10;1.98;;;;;;;10.35;79.54;95318.13;5116323;27;20486;-76
2021/09/11 00:50:55;;;;;;;4.47;2.10;;;;;;;10.23;80.47;95320.66;5118397;27;20050;-75
2021/09/11 00:53:22;;;;;;;2.35;1.67;;;;;;;10.10;80.42;95324.19;5116838;27;20104;-75
2021/09/11 00:55:49;;;;;;;3.13;1.77;;;;;;;9.99;81.24;95314.47;5111460;27;20035;-75
2021/09/11 00:58:16;;;;;;;4.72;2.25;;;;;;;10.05;81.05;95318.81;5120916;27;20031;-76
2021/09/11 01:00:42;;;;;;;3.28;1.98;;;;;;;9.99;81.21;95309.25;5115382;27;20035;-74
2021/09/11 01:03:11;;;;;;;3.72;2.08;;;;;;;10.01;80.81;95307.25;5098764;28;20081;-76
2021/09/11 01:05:39;;;;;;;5.57;2.17;;;;;;;10.08;80.95;95315.81;5114851;27;20119;-76
2021/09/11 01:08:06;;;;;;;3.63;2.58;;;;;;;10.06;80.86;95320.41;5118442;27;20416;-75
2021/09/11 01:10:33;;;;;;;4.78;2.20;;;;;;;10.02;80.42;95319.25;5119758;27;20039;-76
2021/09/11 01:13:01;;;;;;;2.40;1.83;;;;;;;10.01;80.20;95322.88;5117867;28;20046;-76
2021/09/11 01:15:33;;;;;;;4.63;2.05;;;;;;;10.00;80.47;95326.47;5116546;28;20042;-75
2021/09/11 01:18:01;;;;;;;3.83;1.85;;;;;;;9.97;81.35;95332.09;5113361;28;20505;-76
2021/09/11 01:20:28;;;;;;;3.20;1.90;;;;;;;9.96;81.56;95325.31;5115738;28;20048;-76
2021/09/11 01:22:55;;;;;;;7.80;2.13;;;;;;;9.85;81.26;95318.19;5114308;28;20427;-76
2021/09/11 01:25:23;;;;;;;3.85;2.55;;;;;;;9.80;81.40;95312.84;5117451;28;20463;-77
2021/09/11 01:27:51;;;;;;;3.88;2.05;;;;;;;9.86;81.23;95325.00;5119273;28;20102;-76
2021/09/11 01:30:22;;;;;;;3.30;1.75;;;;;;;9.81;81.70;95319.63;5118531;28;20047;-75
2021/09/11 01:32:50;;;;;;;4.38;2.28;;;;;;;9.80;82.16;95315.47;5112717;28;20035;-75
2021/09/11 01:35:18;;;;;;;4.32;2.60;;;;;;;9.78;82.14;95318.28;5096436;28;20075;-75
2021/09/11 01:37:45;;;;;;;3.22;2.70;;;;;;;9.74;82.59;95317.91;5122744;28;20101;-75
2021/09/11 01:40:13;;;;;;;2.47;1.98;;;;;;;9.66;83.40;95325.97;5117611;28;20045;-76
2021/09/11 01:42:40;;;;;;;3.92;2.40;;;;;;;9.67;84.22;95317.16;5118238;28;20084;-75
2021/09/11 01:45:12;;;;;;;3.67;2.28;;;;;;;9.69;84.08;95314.34;5121726;28;20038;-76
2021/09/11 01:47:40;;;;;;;3.95;2.42;;;;;;;9.68;84.67;95310.94;5096261;28;20058;-75
2021/09/11 01:50:09;;;;;;;2.53;2.00;;;;;;;9.64;85.15;95312.38;5087923;28;20040;-75
2021/09/11 01:52:37;;;;;;;2.83;2.22;;;;;;;9.65;84.69;95318.38;5089216;28;20113;-76
2021/09/11 01:55:07;;;;;;;4.07;2.10;;;;;;;9.59;84.66;95312.22;5088822;28;20047;-76
2021/09/11 01:57:38;;;;;;;5.45;2.70;;;;;;;9.57;84.90;95307.22;5086485;28;20044;-75
2021/09/11 02:00:06;;;;;;;3.22;2.17;;;;;;;9.59;85.27;95320.00;5088541;28;20055;-75
2021/09/11 02:02:33;;;;;;;3.70;2.88;;;;;;;9.61;86.24;95318.00;5089169;28;20040;-75
2021/09/11 02:05:00;;;;;;;4.20;2.30;;;;;;;9.48;86.46;95318.09;5088057;28;20134;-76
2021/09/11 02:07:27;;;;;;;3.95;2.70;;;;;;;9.49;87.62;95314.47;5089422;28;20032;-76
2021/09/11 02:09:57;;;;;;;4.32;2.75;;;;;;;9.45;87.59;95313.31;5089891;28;20465;-77
2021/09/11 02:12:24;;;;;;;4.22;2.85;;;;;;;9.50;87.71;95316.09;5086524;28;20113;-76
2021/09/11 02:14:51;;;;;;;3.58;2.65;;;;;;;9.48;88.36;95315.50;5087474;28;20040;-75
2021/09/11 02:17:17;;;;;;;3.88;2.70;;;;;;;9.51;87.91;95320.28;5087314;28;20504;-74
2021/09/11 02:19:44;;;;;;;2.75;2.40;;;;;;;9.47;87.29;95314.72;5085938;28;20044;-75
2021/09/11 02:22:11;;;;;;;3.67;2.53;;;;;;;9.52;86.33;95319.28;5086924;28;20097;-75
2021/09/11 02:24:38;;;;;;;3.00;2.10;;;;;;;9.49;86.33;95310.09;5087162;28;20040;-75
2021/09/11 02:27:06;;;;;;;3.53;1.88;;;;;;;9.52;85.63;95309.66;5090762;28;20425;-75
2021/09/11 02:29:33;;;;;;;2.88;2.50;;;;;;;9.45;85.07;95314.09;5090266;28;20039;-76
2021/09/11 02:32:01;;;;;;;2.78;2.08;;;;;;;9.37;84.66;95317.78;5090361;28;20559;-75
2021/09/11 02:34:29;;;;;;;4.90;2.92;;;;;;;9.33;84.46;95321.81;5090179;28;20036;-75
2021/09/11 02:36:55;;;;;;;4.25;2.35;;;;;;;9.21;84.56;95309.69;5089715;28;20089;-75
2021/09/11 02:39:22;;;;;;;2.65;2.13;;;;;;;9.27;84.42;95322.63;5090005;28;20113;-75
2021/09/11 02:41:49;;;;;;;3.50;2.20;;;;;;;9.23;84.76;95321.47;5089628;28;20050;-75
2021/09/11 02:44:16;;;;;;;3.97;2.65;;;;;;;9.16;84.73;95324.13;5088904;28;20044;-75
2021/09/11 02:46:43;;;;;;;3.83;2.38;;;;;;;9.13;85.34;95326.34;5088376;28;20070;-75
2021/09/11 02:49:09;;;;;;;6.07;2.83;;;;;;;8.96;85.57;95300.06;5114749;27;20066;-75
2021/09/11 02:51:36;;;;;;;3.00;2.13;;;;;;;9.03;85.79;95313.81;5114619;27;20043;-75
2021/09/11 02:54:03;;;;;;;5.15;3.22;;;;;;;8.99;86.41;95305.63;5118350;27;20034;-75
2021/09/11 02:56:29;;;;;;;2.88;1.98;;;;;;;8.98;87.94;95309.25;5116436;27;20093;-76
2021/09/11 02:58:56;;;;;;;4.88;2.97;;;;;;;8.96;88.12;95311.22;5117816;27;20036;-76
2021/09/11 03:01:24;;;;;;;3.85;2.70;;;;;;;8.97;88.24;95307.63;5122339;27;20048;-75
2021/09/11 03:03:51;;;;;;;5.90;2.35;;;;;;;8.96;88.17;95311.22;5098435;27;20071;-75
2021/09/11 03:06:18;;;;;;;3.65;2.58;;;;;;;8.92;88.49;95304.88;5116725;27;20036;-75
2021/09/11 03:08:45;;;;;;;4.15;2.75;;;;;;;8.97;88.36;95317.25;5123778;27;20051;-75
2021/09/11 03:11:12;;;;;;;3.60;2.45;;;;;;;8.91;88.35;95303.28;5117407;27;20394;-75
2021/09/11 03:13:39;;;;;;;5.40;3.38;;;;;;;8.96;88.64;95311.22;5119642;27;20093;-75
2021/09/11 03:16:06;;;;;;;6.30;3.10;;;;;;;8.95;88.34;95309.66;5121421;27;20476;-74
2021/09/11 03:18:33;;;;;;;4.18;2.20;;;;;;;8.96;89.27;95319.03;5121529;27;20038;-75
2021/09/11 03:21:00;;;;;;;4.57;2.85;;;;;;;8.86;90.25;95300.50;5115516;27;20039;-75
2021/09/11 03:23:26;;;;;;;4.90;2.75;;;;;;;8.93;90.56;95309.06;5121610;27;20449;-74
2021/09/11 03:25:53;;;;;;;5.40;2.88;;;;;;;8.93;89.63;95306.47;5123180;27;20040;-76
2021/09/11 03:28:20;;;;;;;4.97;3.22;;;;;;;9.02;88.96;95308.81;5122920;27;20412;-75
2021/09/11 03:30:47;;;;;;;4.20;2.47;;;;;;;8.86;88.31;95300.50;5116318;27;20046;-74
2021/09/11 03:33:14;;;;;;;5.72;3.35;;;;;;;8.85;88.29;95309.31;5121355;27;20031;-75
2021/09/11 03:35:44;;;;;;;4.68;2.72;;;;;;;8.89;88.92;95307.88;5121380;27;20114;-76
2021/09/11 03:38:11;;;;;;;3.42;2.92;;;;;;;8.88;88.93;95306.28;5121042;27;20067;-75
2021/09/11 03:40:38;;;;;;;4.72;2.65;;;;;;;8.85;89.02;95298.91;5118441;27;20073;-75
2021/09/11 03:43:05;;;;;;;4.50;2.83;;;;;;;8.84;89.04;95312.91;5124908;27;20175;-75
2021/09/11 03:45:31;;;;;;;7.20;3.53;;;;;;;8.80;88.59;95316.91;5119528;27;20067;-75
2021/09/11 03:47:58;;;;;;;3.53;2.65;;;;;;;8.76;88.66;95318.34;5119761;27;20420;-76
2021/09/11 03:50:25;;;;;;;4.13;2.35;;;;;;;8.68;88.77;95321.16;5101851;27;20046;-75
2021/09/11 03:52:52;;;;;;;4.38;3.13;;;;;;;8.68;88.92;95323.75;5120358;27;20035;-75
2021/09/11 03:55:19;;;;;;;5.93;3.10;;;;;;;8.60;89.24;95312.59;5121488;27;20050;-75
2021/09/11 03:57:45;;;;;;;3.85;2.55;;;;;;;8.69;90.06;95327.97;5120478;27;20124;-75
2021/09/11 04:00:12;;;;;;;5.85;3.42;;;;;;;8.61;90.99;95329.78;5124995;27;20043;-75
2021/09/11 04:02:39;;;;;;;4.20;2.78;;;;;;;8.52;91.76;95315.44;5119893;27;20042;-75
2021/09/11 04:05:07;;;;;;;4.35;3.10;;;;;;;8.54;92.71;95323.81;5096455;27;20058;-75
2021/09/11 04:07:33;;;;;;;4.57;2.92;;;;;;;8.59;92.19;95329.19;5118021;27;20035;-75
2021/09/11 04:10:00;;;;;;;4.35;2.88;;;;;;;8.60;91.55;95330.00;5121091;27;20553;-75
2021/09/11 04:12:27;;;;;;;4.43;2.95;;;;;;;8.58;90.78;95339.78;5119812;27;20488;-75
2021/09/11 04:14:54;;;;;;;3.63;2.42;;;;;;;8.56;90.38;95337.41;5119574;27;20449;-75
2021/09/11 04:17:20;;;;;;;4.90;3.13;;;;;;;8.48;89.78;95323.84;5112299;27;20046;-75
2021/09/11 04:19:47;;;;;;;4.00;2.42;;;;;;;8.51;89.42;95334.59;5118972;27;20039;-75
2021/09/11 04:22:14;;;;;;;5.28;2.72;;;;;;;8.42;89.52;95328.06;5120239;27;20043;-75
2021/09/11 04:24:41;;;;;;;5.13;2.55;;;;;;;8.38;89.35;95334.63;5117607;27;20039;-74
2021/09/11 04:27:08;;;;;;;6.07;2.75;;;;;;;8.28;89.71;95323.88;5122685;27;20151;-75
2021/09/11 04:29:34;;;;;;;3.17;2.45;;;;;;;8.30;89.91;95332.25;5117272;27;20461;-74
2021/09/11 04:32:01;;;;;;;4.93;2.83;;;;;;;8.34;90.13;95338.66;5122398;27;20444;-78
2021/09/11 04:34:28;;;;;;;4.72;3.13;;;;;;;8.19;90.99;95316.31;5120971;27;20496;-75
2021/09/11 04:36:55;;;;;;;4.45;2.95;;;;;;;8.32;91.44;95331.06;5123660;27;20045;-74
2021/09/11 04:39:21;;;;;;;5.75;3.05;;;;;;;8.40;91.83;95337.81;5120147;27;20043;-75
2021/09/11 04:41:48;;;;;;;8.07;2.65;;;;;;;8.52;92.97;95338.81;5118369;27;20039;-76
2021/09/11 04:44:15;;;;;;;6.00;3.60;;;;;;;8.77;92.54;95332.94;5119936;27;20043;-76
2021/09/11 04:46:42;;;;;;;5.18;3.50;;;;;;;9.01;92.12;95334.00;5116583;27;20048;-75
2021/09/11 04:49:09;;;;;;;4.95;3.00;;;;;;;9.19;90.23;95341.09;5111068;27;20061;-76
2021/09/11 04:51:36;;;;;;;4.15;3.05;;;;;;;9.34;91.51;95343.41;5100204;28;20046;-77
2021/09/11 04:54:02;;;;;;;4.88;3.67;;;;;;;9.36;91.81;95347.41;5124089;27;20565;-75
2021/09/11 04:56:29;;;;;;;7.57;3.42;;;;;;;9.47;92.45;95338.13;5120981;27;20127;-75
2021/09/11 04:58:56;;;;;;;4.90;3.05;;;;;;;9.74;91.02;95337.91;5112629;27;20035;-74
2021/09/11 05:01:23;;;;;;;13.05;3.65;;;;;;;9.94;89.57;95342.97;5120682;27;20031;-75
2021/09/11 05:03:50;;;;;;;5.88;3.25;;;;;;;10.09;89.06;95346.00;5114468;27;20047;-75
2021/09/11 05:06:17;;;;;;;5.32;3.35;;;;;;;10.22;88.45;95333.88;5123366;27;20032;-75
2021/09/11 05:08:44;;;;;;;6.93;4.15;;;;;;;10.41;87.70;95345.94;5120970;27;20093;-76
2021/09/11 05:11:10;;;;;;;6.13;3.38;;;;;;;10.44;87.14;95348.09;5115094;27;20101;-76
2021/09/11 05:13:37;;;;;;;6.25;3.20;;;;;;;10.41;86.91;95343.31;5117260;28;20035;-76
2021/09/11 05:16:04;;;;;;;5.85;3.42;;;;;;;10.38;87.74;95343.75;5122211;28;20488;-76
2021/09/11 05:18:32;;;;;;;5.78;3.28;;;;;;;10.40;88.50;95344.31;5121997;28;20051;-76
2021/09/11 05:21:04;;;;;;;4.05;3.08;;;;;;;10.38;88.87;95338.53;5113413;28;20039;-76
2021/09/11 05:23:31;;;;;;;5.30;3.70;;;;;;;10.40;88.75;95326.09;5117710;28;20080;-76
2021/09/11 05:26:02;;;;;;;8.10;4.50;;;;;;;10.41;88.84;95330.31;5119395;28;20160;-76
2021/09/11 05:28:30;;;;;;;6.80;3.50;;;;;;;10.46;88.62;95333.06;5117685;28;20039;-76
2021/09/11 05:30:57;;;;;;;6.68;4.05;;;;;;;10.59;88.69;95333.91;5120575;28;20062;-76
2021/09/11 05:33:24;;;;;;;7.78;3.50;;;;;;;10.65;88.87;95335.66;5119454;28;20455;-76
2021/09/11 05:35:51;;;;;;;6.85;3.97;;;;;;;10.72;89.84;95333.75;5119702;28;20046;-76
2021/09/11 05:38:18;;;;;;;5.40;3.75;;;;;;;10.79;88.81;95324.06;5115607;28;20116;-76
2021/09/11 05:40:45;;;;;;;6.03;3.15;;;;;;;10.95;88.46;95340.06;5120138;28;20052;-76
2021/09/11 05:43:12;;;;;;;4.45;3.30;;;;;;;11.07;88.00;95335.72;5120213;28;20039;-76
2021/09/11 05:45:39;;;;;;;4.45;3.42;;;;;;;11.15;85.93;95326.81;5117766;28;20043;-76
2021/09/11 05:48:06;;;;;;;6.28;3.28;;;;;;;11.29;84.38;95333.41;5124220;28;20047;-76
2021/09/11 05:50:33;;;;;;;7.63;4.00;;;;;;;11.33;84.03;95331.16;5117933;28;20495;-76
2021/09/11 05:52:59;;;;;;;6.00;3.80;;;;;;;11.48;82.73;95336.75;5103016;28;20050;-76
2021/09/11 05:55:26;;;;;;;5.93;3.33;;;;;;;11.48;83.04;95324.47;5116827;28;20436;-76
2021/09/11 05:57:53;;;;;;;7.65;4.13;;;;;;;11.59;82.90;95333.34;5117767;28;20031;-75
2021/09/11 06:00:20;;;;;;;6.45;4.15;;;;;;;11.64;83.55;95323.03;5123192;27;20159;-76
2021/09/11 06:02:46;;;;;;;7.35;4.68;;;;;;;11.64;83.65;95320.44;5124845;27;20458;-76
2021/09/11 06:05:14;;;;;;;9.05;3.75;;;;;;;11.66;83.63;95318.38;5119261;27;20130;-78
2021/09/11 06:07:42;;;;;;;6.35;3.63;;;;;;;11.65;83.86;95316.03;5127982;27;20100;-75
2021/09/11 06:10:10;;;;;;;6.57;3.65;;;;;;;11.74;83.51;95319.91;5120084;27;20036;-76
2021/09/11 06:12:37;;;;;;;6.30;2.70;;;;;;;11.84;84.94;95319.31;5120144;27;20046;-76
2021/09/11 06:15:08;;;;;;;5.78;3.53;;;;;;;11.96;84.34;95324.59;5124023;27;20074;-76
2021/09/11 06:17:35;;;;;;;5.40;3.10;;;;;;;11.99;82.69;95322.31;5121228;27;20046;-76
2021/09/11 06:20:04;;;;;;;4.72;3.33;;;;;;;12.12;83.24;95333.53;5106805;27;20050;-76
2021/09/11 06:22:30;;;;;;;4.57;2.88;;;;;;;12.23;82.22;95328.31;5127969;27;20456;-75
2021/09/11 06:24:57;;;;;;;5.38;3.28;;;;;;;12.38;82.08;95325.22;5118856;27;20058;-76
2021/09/11 06:27:24;;;;;;;7.50;4.28;;;;;;;12.49;81.71;95330.66;5115982;27;20043;-74
2021/09/11 06:29:51;;;;;;;5.00;3.08;;;;;;;12.58;80.96;95329.28;5127778;27;20047;-77
2021/09/11 06:32:18;;;;;;;4.45;2.58;;;;;;;12.71;79.04;95334.25;5126937;27;20039;-77
2021/09/11 06:34:45;;;;;;;4.10;2.58;;;;;;;12.79;79.26;95339.09;5124526;27;20048;-76
2021/09/11 06:37:11;;;;;;;7.30;3.58;;;;;;;12.90;77.97;95331.47;5119656;27;20476;-77
2021/09/11 06:39:38;;;;;;;6.72;3.72;;;;;;;13.01;77.88;95328.00;5117820;27;20058;-76
2021/09/11 06:42:05;;;;;;;6.65;3.20;;;;;;;13.04;77.56;95317.09;5113414;27;20052;-76
2021/09/11 06:44:32;;;;;;;11.52;4.72;;;;;;;13.11;77.39;95317.75;5121522;27;20417;-77
2021/09/11 06:46:59;;;;;;;6.05;3.45;;;;;;;13.28;77.19;95328.22;5121302;27;20043;-77
2021/09/11 06:49:26;;;;;;;9.23;3.95;;;;;;;13.39;76.27;95329.22;5117407;27;20054;-75
2021/09/11 06:51:52;;;;;;;6.38;3.47;;;;;;;13.50;75.91;95325.75;5120479;27;20412;-78
2021/09/11 06:54:23;;;;;;;6.63;2.80;;;;;;;13.67;75.68;95335.44;5116878;27;20135;-78
2021/09/11 06:56:50;;;;;;;4.80;3.45;;;;;;;13.82;74.92;95330.44;5115930;27;20063;-79
2021/09/11 06:59:17;;;;;;;3.60;2.17;;;;;;;13.87;74.19;95325.28;5120912;27;20067;-78
2021/09/11 07:01:44;;;;;;;11.25;3.67;;;;;;;13.86;73.46;95315.84;5116503;27;20091;-77
2021/09/11 07:04:11;;;;;;;6.07;2.75;;;;;;;14.01;71.77;95319.72;5117694;27;20127;-77
2021/09/11 07:06:37;;;;;;;6.95;3.45;;;;;;;14.21;72.15;95329.72;5119211;27;20121;-77
2021/09/11 07:09:04;;;;;;;7.78;3.28;;;;;;;14.39;71.95;95315.53;5117763;27;20055;-77
2021/09/11 07:11:31;;;;;;;5.55;3.55;;;;;;;14.52;72.04;95309.91;5113798;27;20039;-78
2021/09/11 07:13:58;;;;;;;9.90;4.35;;;;;;;14.65;73.11;95314.81;5101964;27;20047;-77
2021/09/11 07:16:25;;;;;;;6.82;4.28;;;;;;;14.78;72.74;95307.63;5105465;27;20039;-79
2021/09/11 07:18:52;;;;;;;6.82;3.83;;;;;;;14.87;71.42;95308.78;5122591;27;20494;-79
2021/09/11 07:21:18;;;;;;;5.70;3.67;;;;;;;14.99;70.41;95303.41;5125801;27;20035;-78
2021/09/11 07:23:45;;;;;;;8.45;3.75;;;;;;;15.23;69.00;95314.38;5118252;27;20043;-77
2021/09/11 07:26:18;;;;;;;7.68;4.28;;;;;;;15.35;69.45;95309.78;5118500;27;20039;-77
2021/09/11 07:28:49;;;;;;;5.65;3.55;;;;;;;15.53;67.95;95297.34;5123160;27;20155;-78
2021/09/11 07:31:17;;;;;;;10.45;3.83;;;;;;;15.70;67.61;95313.75;5105666;27;20058;-77
2021/09/11 07:33:44;;;;;;;6.43;4.03;;;;;;;15.77;67.51;95303.88;5120187;27;20101;-77
2021/09/11 07:36:11;;;;;;;5.82;3.33;;;;;;;15.91;66.21;95303.41;5125568;27;20039;-77
2021/09/11 07:38:39;;;;;;;6.40;4.30;;;;;;;15.98;66.51;95293.50;5122142;27;20031;-77
2021/09/11 07:41:06;;;;;;;7.90;3.15;;;;;;;16.15;65.13;95304.63;5117056;27;20043;-77
2021/09/11 07:43:33;;;;;;;6.97;4.47;;;;;;;16.27;64.52;95306.28;5120319;27;20046;-77
2021/09/11 07:46:00;;;;;;;9.13;3.97;;;;;;;16.32;65.30;95282.66;5122332;27;20506;-77
2021/09/11 07:48:27;;;;;;;5.32;3.35;;;;;;;16.69;63.98;95300.94;5121243;27;20047;-77
2021/09/11 07:50:54;;;;;;;4.57;2.67;;;;;;;16.80;61.31;95286.00;5114535;27;20039;-77
2021/09/11 07:53:21;;;;;;;4.78;3.15;;;;;;;16.86;60.75;95287.59;5118467;27;20048;-76
2021/09/11 07:55:48;;;;;;;3.90;3.00;;;;;;;16.93;61.85;95288.16;5118838;27;20158;-76
2021/09/11 07:58:15;;;;;;;4.85;3.30;;;;;;;17.08;61.63;95290.03;5118835;27;20045;-76
2021/09/11 08:00:42;;;;;;;7.15;4.45;;;;;;;17.25;61.47;95295.06;5115595;27;20035;-76
2021/09/11 08:03:09;;;;;;;3.97;3.00;;;;;;;17.43;61.56;95290.31;5119719;27;20523;-76
2021/09/11 08:05:37;;;;;;;3.78;2.67;;;;;;;17.59;59.08;95297.16;5116026;27;20556;-76
2021/09/11 08:08:04;;;;;;;3.92;2.83;;;;;;;17.69;58.54;95286.66;5115467;27;20043;-75
2021/09/11 08:10:31;;;;;;;5.25;2.80;;;;;;;17.91;60.25;95290.88;5124902;27;20042;-75
2021/09/11 08:12:57;;;;;;;5.10;2.50;;;;;;;18.09;56.88;95279.75;5112292;27;20051;-76
2021/09/11 08:15:24;;;;;;;9.20;4.03;;;;;;;18.27;56.94;95280.25;5114674;27;20032;-76
2021/09/11 08:17:51;;;;;;;4.68;2.85;;;;;;;18.38;57.79;95284.44;5094227;27;20893;-76
2021/09/11 08:20:18;;;;;;;3.97;2.40;;;;;;;18.63;55.59;95277.50;5106579;27;20549;-76
2021/09/11 08:22:45;;;;;;;3.53;2.60;;;;;;;18.85;53.94;95264.75;5111513;27;20091;-75
2021/09/11 08:25:12;;;;;;;6.38;2.63;;;;;;;18.93;53.93;95262.63;5110641;27;20570;-76
2021/09/11 08:27:39;;;;;;;3.38;2.28;;;;;;;19.09;53.07;95267.50;5110703;27;20504;-76
2021/09/11 08:30:06;;;;;;;4.70;2.67;;;;;;;19.17;53.10;95263.50;5111241;27;20035;-76
2021/09/11 08:32:36;;;;;;;8.98;2.65;;;;;;;19.35;55.10;95248.06;5112955;27;20036;-77
2021/09/11 08:35:04;;;;;;;3.15;1.90;;;;;;;19.62;52.54;95255.50;5116055;27;20101;-75
2021/09/11 08:37:31;;;;;;;2.28;1.65;;;;;;;19.99;51.68;95257.56;5108774;27;20836;-76
2021/09/11 08:39:58;;;;;;;4.10;2.70;;;;;;;20.13;52.53;95251.63;5109181;27;20046;-76
2021/09/11 08:42:25;;;;;;;3.88;2.15;;;;;;;20.22;49.54;95255.22;5092290;27;20058;-75
2021/09/11 08:44:52;;;;;;;3.63;2.42;;;;;;;20.37;48.37;95255.06;5123134;27;20038;-76
2021/09/11 08:47:20;;;;;;;3.45;1.80;;;;;;;20.41;48.43;95257.91;5117725;27;20046;-76
2021/09/11 08:49:46;;;;;;;3.33;2.35;;;;;;;20.38;48.44;95258.47;5115527;27;20111;-76
2021/09/11 08:52:14;;;;;;;3.13;2.45;;;;;;;20.51;46.47;95254.34;5118745;27;20043;-80
2021/09/11 08:54:41;;;;;;;2.58;1.98;;;;;;;20.66;45.98;95248.91;5109835;27;20044;-76
2021/09/11 08:57:24;;;;;;;2.10;1.80;;;;;;;20.90;46.74;95248.06;5108850;27;20056;-76
2021/09/11 08:59:53;;;;;;;1.85;1.58;;;;;;;21.02;43.39;95251.09;5115696;27;20049;-80
2021/09/11 09:02:23;;;;;;;2.28;1.80;;;;;;;21.25;42.28;95244.13;5116329;27;20070;-77
2021/09/11 09:04:57;;;;;;;5.00;3.72;;;;;;;21.56;43.17;95239.16;5114286;27;20038;-77
2021/09/11 09:07:34;;;;;;;4.90;2.72;;;;;;;21.93;42.63;95248.09;5124476;27;20044;-77
2021/09/11 09:10:19;;;;;;;3.63;2.17;;;;;;;22.31;42.27;95232.03;5095756;27;20044;-77
2021/09/11 09:12:49;;;;;;;4.78;2.30;;;;;;;22.33;39.79;95240.47;5117315;28;20119;-77
2021/09/11 09:15:20;;;;;;;1.80;1.27;;;;;;;22.64;38.00;95234.53;5116613;28;20064;-77
2021/09/11 09:17:49;;;;;;;2.35;1.50;;;;;;;23.00;37.53;95220.50;5121534;28;20118;-77
2021/09/11 09:20:35;;;;;;;2.20;1.65;;;;;;;23.32;38.11;95226.72;5121255;28;20035;-78
2021/09/11 09:23:05;;;;;;;2.72;1.75;;;;;;;23.67;37.29;95224.25;5124827;28;20027;-78
2021/09/11 09:25:34;;;;;;;3.45;2.15;;;;;;;23.70;36.15;95214.88;5117123;28;20035;-77
2021/09/11 09:28:05;;;;;;;3.10;1.42;;;;;;;23.97;34.85;95219.28;5119078;28;20092;-77
2021/09/11 09:30:45;;;;;;;3.47;2.35;;;;;;;23.99;35.38;95225.09;5121472;28;20051;-76
2021/09/11 09:33:26;;;;;;;2.58;1.52;;;;;;;24.20;34.03;95218.13;5114596;28;20059;-77
2021/09/11 09:35:53;;;;;;;2.00;1.45;;;;;;;24.17;33.00;95212.63;5122917;27;22250;-78
2021/09/11 09:38:20;;;;;;;2.38;1.60;;;;;;;24.46;31.54;95216.63;5120307;27;20035;-78
2021/09/11 09:40:49;;;;;;;2.75;1.65;;;;;;;24.86;31.67;95214.66;5123154;27;20038;-77
2021/09/11 09:43:40;;;;;;;2.08;1.55;;;;;;;25.34;31.04;95200.44;5119452;27;20046;-78
2021/09/11 09:46:09;;;;;;;2.15;1.45;;;;;;;25.55;30.28;95205.09;5118330;27;20055;-77
2021/09/11 09:48:37;;;;;;;3.10;1.38;;;;;;;25.74;29.74;95202.84;5128504;27;20058;-78
2021/09/11 09:51:08;;;;;;;12.55;6.60;;;;;;;25.52;33.39;95200.41;5120431;27;20490;-78
2021/09/11 09:53:36;;;;;;;5.20;2.70;;;;;;;25.35;31.81;95201.19;5119854;27;20040;-78
2021/09/11 09:56:04;;;;;;;3.05;2.72;;;;;;;25.62;30.39;95192.06;5125707;27;20059;-78
2021/09/11 09:58:32;;;;;;;2.15;1.45;;;;;;;25.71;31.87;95186.69;5123328;27;20047;-78
2021/09/11 10:00:59;;;;;;;2.03;1.73;;;;;;;26.06;29.66;95192.72;5120425;27;20112;-79
2021/09/11 10:03:26;;;;;;;2.45;1.77;;;;;;;26.36;30.58;95195.38;5128508;27;20069;-76
2021/09/11 10:06:10;;;;;;;7.43;4.88;;;;;;;26.91;28.82;95192.88;5116062;27;20031;-75
2021/09/11 10:08:45;;;;;;;4.32;2.83;;;;;;;27.08;27.88;95187.38;5122775;27;20035;-76
2021/09/11 10:11:12;;;;;;;1.50;1.10;;;;;;;27.84;26.55;95174.72;5118210;27;20060;-76
2021/09/11 10:13:56;;;;;;;5.50;1.92;;;;;;;28.47;26.09;95166.38;5118573;27;20043;-76
2021/09/11 10:16:33;;;;;;;3.28;1.33;;;;;;;28.38;25.58;95165.72;5114868;27;20057;-76
2021/09/11 10:19:17;;;;;;;2.50;1.27;;;;;;;28.53;24.40;95172.28;5119679;27;20031;-76
2021/09/11 10:21:51;;;;;;;1.73;1.23;;;;;;;28.29;24.29;95163.16;5124040;27;20051;-76
2021/09/11 10:24:18;;;;;;;3.45;1.40;;;;;;;28.32;24.99;95173.16;5122386;27;20051;-77
2021/09/11 10:27:08;;;;;;;1.88;1.30;;;;;;;28.98;24.34;95176.66;5116742;27;20058;-77
2021/09/11 10:29:43;;;;;;;3.08;1.05;;;;;;;29.22;19.72;95175.03;5115878;27;20036;-76
2021/09/11 10:32:16;;;;;;;1.38;0.90;;;;;;;29.52;19.15;95168.16;5117617;27;20105;-76
2021/09/11 10:34:53;;;;;;;1.58;1.08;;;;;;;29.64;17.24;95174.56;5119762;27;20062;-77
2021/09/11 10:37:49;;;;;;;0.85;0.47;;;;;;;29.72;17.53;95173.63;5119522;27;20048;-76
2021/09/11 10:40:33;;;;;;;1.40;0.80;;;;;;;30.36;17.10;95170.97;5100550;27;20059;-77
2021/09/11 10:43:18;;;;;;;2.40;1.08;;;;;;;30.59;18.53;95171.88;5113491;27;20073;-76
2021/09/11 10:45:54;;;;;;;2.78;2.00;;;;;;;30.88;20.42;95170.56;5101305;28;20044;-76
2021/09/11 10:48:39;;;;;;;4.95;1.10;;;;;;;31.31;19.51;95176.03;5114082;27;20109;-76
2021/09/11 10:51:13;;;;;;;4.28;1.33;;;;;;;31.67;19.07;95159.78;5113028;27;20039;-75
2021/09/11 10:53:56;;;;;;;1.08;0.63;;;;;;;31.73;18.18;95169.91;5117690;27;20054;-75
2021/09/11 10:56:28;;;;;;;3.50;0.98;;;;;;;31.22;18.80;95168.19;5110865;27;20074;-74
2021/09/11 10:59:13;;;;;;;1.43;0.83;;;;;;;31.48;19.04;95153.31;5114308;27;20044;-76
2021/09/11 11:02:10;;;;;;;1.35;0.75;;;;;;;31.56;19.92;95146.91;5118756;27;20070;-76
2021/09/11 11:04:46;;;;;;;1.48;0.80;;;;;;;31.99;17.41;95144.16;5119259;27;20051;-77
2021/09/11 11:07:34;;;;;;;1.13;0.57;;;;;;;32.30;17.92;95145.00;5101776;27;20051;-76
2021/09/11 11:10:06;;;;;;;1.98;0.63;;;;;;;32.54;16.27;95141.91;5119344;27;20043;-74
2021/09/11 11:12:40;;;;;;;1.20;0.60;;;;;;;32.54;13.65;95131.13;5124555;27;20454;-74
2021/09/11 11:15:10;;;;;;;0.93;0.60;;;;;;;32.23;13.00;95115.28;5094288;27;20112;-74
2021/09/11 11:17:42;;;;;;;0.98;0.50;;;;;;;31.85;15.22;95117.00;5118673;27;20048;-74
2021/09/11 11:20:10;;;;;;;0.88;0.50;;;;;;;32.61;15.28;95129.66;5119671;27;20035;-74
2021/09/11 11:22:39;;;;;;;1.52;1.00;;;;;;;32.71;15.04;95118.25;5116499;27;20043;-74
2021/09/11 11:25:09;;;;;;;1.83;1.02;;;;;;;33.05;16.42;95110.94;5115643;27;20397;-72
2021/09/11 11:27:36;;;;;;;1.48;0.98;;;;;;;33.23;15.42;95111.16;5113040;27;20036;-74
2021/09/11 11:30:05;;;;;;;0.98;0.80;;;;;;;33.42;15.84;95101.31;5088648;28;20043;-74
2021/09/11 11:32:35;;;;;;;3.20;0.90;;;;;;;33.89;13.86;95107.91;5112416;27;20420;-74
2021/09/11 11:35:05;;;;;;;1.48;0.80;;;;;;;33.46;15.29;95099.44;5102816;27;20416;-73
2021/09/11 11:37:34;;;;;;;4.47;2.47;;;;;;;33.20;14.02;95101.09;5111187;27;20044;-74
2021/09/11 11:40:05;;;;;;;1.67;1.00;;;;;;;32.87;15.83;95089.16;5116525;27;20397;-74
2021/09/11 11:42:33;;;;;;;0.82;0.52;;;;;;;31.98;15.00;95094.09;5117333;27;20062;-74
2021/09/11 11:45:03;;;;;;;2.67;0.85;;;;;;;32.29;14.47;95097.66;5123986;27;20119;-74